Hauptseite
METAR-TAF:

METAR-TAF

Flughäfen :

Flughafen Lille

Lille, Frankreich

Breite: 50-34N, Länge: 003-06E, Höhe: 48 m

Beobachtung

Neuester Wetterbericht von vor 24 Minuten, um 02:00 UTC
Wind 9 kt aus Nordost
Temperatur 3°C
Luftfeuchtigkeit 75%
Luftdruck 1026 hPa
Sichtweite 10 km oder mehr
keine Wolken unter 1500 m und keine Kumulonimbus oder Gewitterwolken

METAR: LFQQ 180200Z AUTO 05009KT CAVOK 03/M01 Q1026 NOSIG

Zeit: 03:24 (02:24 UTC)

Prognose

Neuester Wetterbericht von vor 3 Stunden und 24 Minuten, um 23:00 UTC
Gültige Prognose vom 18 um 00 UTC bis 19 um 06 UTC
Wind 10 kt aus Ost/Nordost
Sichtweite 10 km oder mehr
keine Wolken unter 1500 m und keine Kumulonimbus oder Gewitterwolken
Wahrscheinlichkeit 30% :
Zeitweise
vom 19 um 04 UTC bis 19 um 06 UTC
Geschlossene Wolkendecke in der Höhe von 700 ft

TAF: LFQQ 172300Z 1800/1906 06010KT CAVOK PROB30 TEMPO 1904/1906 OVC007

Wetterbeobachtungen und Prognosen von mehr als 4000 Flughäfen (METAR und TAF Bericht).

Die verfügbaren Stationen werden durch gelbe und rote Markierungen auf der Karte dargestellt.

Führen Sie die Maus auf sie, um den Namen der Station zu sehen.

Darauf klicken, um die Beobachtung von Wetterbeobachtungen und Prognosen zu sehen.

Um die Karte zu ändern : klicken Sie auf den grünen Tasten mit einem schwarzen Kreuz Zum Vergrößern, auf den grünen Button mit einem Gedankenstrich zu verkleinern, oder auf die grünen Pfeile für benachbarte Karten.


METAR-TAF: